createdAt,value
2018-12-04T00:02:16.472Z,16.75
2018-12-04T00:04:42.456Z,16.78
2018-12-04T00:07:08.434Z,16.50
2018-12-04T00:09:34.396Z,16.82
2018-12-04T00:12:00.381Z,16.69
2018-12-04T00:19:29.637Z,16.68
2018-12-04T00:21:55.628Z,16.70
2018-12-04T00:24:21.576Z,16.82
2018-12-04T00:26:47.528Z,16.77
2018-12-04T00:29:13.486Z,16.88
2018-12-04T00:31:39.458Z,16.82
2018-12-04T00:34:05.414Z,16.98
2018-12-04T00:36:31.415Z,16.66
2018-12-04T00:38:57.376Z,16.86
2018-12-04T00:41:23.412Z,16.99
2018-12-04T00:43:49.399Z,16.94
2018-12-04T00:46:15.360Z,16.79
2018-12-04T00:48:41.344Z,16.79
2018-12-04T00:51:07.329Z,16.78
2018-12-04T00:53:33.300Z,16.75
2018-12-04T00:55:59.296Z,16.83
2018-12-04T00:58:25.279Z,16.77
2018-12-04T01:00:51.248Z,16.86
2018-12-04T01:03:17.221Z,17.02
2018-12-04T01:05:43.207Z,17.06
2018-12-04T01:08:09.179Z,16.94
2018-12-04T01:10:35.147Z,16.86
2018-12-04T01:13:01.132Z,16.06
2018-12-04T01:15:27.107Z,16.74
2018-12-04T01:17:53.053Z,16.63
2018-12-04T01:20:19.025Z,16.22
2018-12-04T01:22:44.985Z,16.82
2018-12-04T01:25:10.967Z,16.96
2018-12-04T01:27:36.926Z,17.19
2018-12-04T01:30:02.888Z,17.07
2018-12-04T01:32:28.889Z,16.94
2018-12-04T01:34:54.860Z,16.97
2018-12-04T01:37:21.466Z,17.00
2018-12-04T01:39:47.419Z,17.25
2018-12-04T01:42:13.419Z,16.95
2018-12-04T01:44:39.400Z,17.22
2018-12-04T01:47:06.605Z,17.23
2018-12-04T01:49:32.576Z,17.09
2018-12-04T01:51:58.585Z,16.99
2018-12-04T01:54:24.531Z,16.21
2018-12-04T01:56:50.581Z,16.58
2018-12-04T01:59:16.547Z,16.79
2018-12-04T02:01:42.571Z,16.66
2018-12-04T02:04:08.513Z,16.89
2018-12-04T02:06:34.510Z,16.84
2018-12-04T02:09:00.474Z,16.88
2018-12-04T02:11:26.423Z,16.61
2018-12-04T02:13:52.400Z,16.48
2018-12-04T02:16:18.399Z,16.86
2018-12-04T02:18:44.530Z,16.94
2018-12-04T02:21:10.495Z,16.87
2018-12-04T02:23:36.502Z,17.10
2018-12-04T02:26:02.464Z,16.99
2018-12-04T02:28:28.450Z,16.50
2018-12-04T02:30:54.436Z,16.67
2018-12-04T02:33:20.394Z,17.01
2018-12-04T02:35:46.343Z,16.66
2018-12-04T02:38:12.303Z,16.86
2018-12-04T02:40:38.284Z,16.22
2018-12-04T02:43:04.268Z,16.64
2018-12-04T02:45:30.280Z,16.90
2018-12-04T02:47:56.258Z,16.85
2018-12-04T02:50:22.287Z,17.05
2018-12-04T02:52:48.296Z,16.85
2018-12-04T02:55:14.293Z,17.18
2018-12-04T02:57:40.291Z,17.06
2018-12-04T03:00:06.410Z,16.91
2018-12-04T03:02:32.406Z,17.12
2018-12-04T03:04:58.377Z,17.06
2018-12-04T03:07:24.375Z,16.77
2018-12-04T03:09:50.353Z,16.74
2018-12-04T03:12:16.397Z,16.56
2018-12-04T03:14:42.363Z,16.84
2018-12-04T03:17:08.323Z,16.62
2018-12-04T03:19:34.291Z,16.81
2018-12-04T03:22:00.248Z,16.71
2018-12-04T03:24:26.261Z,16.70
2018-12-04T03:26:52.230Z,16.64
2018-12-04T03:29:18.725Z,16.73
2018-12-04T03:31:44.700Z,16.61
2018-12-04T03:34:10.671Z,16.73
2018-12-04T03:36:36.627Z,16.55
2018-12-04T03:39:02.664Z,16.56
2018-12-04T03:41:28.661Z,16.68
2018-12-04T03:43:54.598Z,16.81
2018-12-04T03:46:20.567Z,16.77
2018-12-04T03:48:46.522Z,16.76
2018-12-04T03:51:12.585Z,16.68
2018-12-04T03:53:38.595Z,16.70
2018-12-04T03:56:04.569Z,16.71
2018-12-04T03:58:34.733Z,16.85
2018-12-04T04:01:00.774Z,16.82
2018-12-04T04:03:26.813Z,16.84
2018-12-04T04:05:52.837Z,16.93
2018-12-04T04:08:18.940Z,17.00
2018-12-04T04:10:44.910Z,16.86
2018-12-04T04:13:11.030Z,16.71
2018-12-04T04:15:37.045Z,16.58
2018-12-04T04:18:03.067Z,16.73
2018-12-04T04:20:29.040Z,16.96
2018-12-04T04:22:55.039Z,16.96
2018-12-04T04:25:21.051Z,16.99
2018-12-04T04:27:47.792Z,16.85
2018-12-04T04:30:13.829Z,16.75
2018-12-04T04:32:39.796Z,16.87
2018-12-04T04:35:05.756Z,16.93
2018-12-04T04:37:31.737Z,16.89
2018-12-04T04:39:57.727Z,16.85
2018-12-04T04:42:23.722Z,17.01
2018-12-04T04:44:49.716Z,17.01
2018-12-04T04:47:20.967Z,16.92
2018-12-04T04:49:47.000Z,17.14
2018-12-04T04:54:44.646Z,16.86
2018-12-04T04:57:10.658Z,16.61
2018-12-04T04:59:36.612Z,16.85
2018-12-04T05:02:02.572Z,16.37
2018-12-04T05:04:28.509Z,16.58
2018-12-04T05:06:54.523Z,16.62
2018-12-04T05:09:20.516Z,16.65
2018-12-04T05:14:20.376Z,16.12
2018-12-04T05:16:46.453Z,16.18
2018-12-04T05:19:12.447Z,16.34
2018-12-04T05:21:38.442Z,16.52
2018-12-04T05:24:04.490Z,16.34
2018-12-04T05:26:30.493Z,16.22
2018-12-04T05:28:56.497Z,15.88
2018-12-04T05:31:22.594Z,16.14
2018-12-04T05:33:48.586Z,16.32
2018-12-04T05:36:14.580Z,16.30
2018-12-04T05:38:40.650Z,15.97
2018-12-04T05:41:06.686Z,15.87
2018-12-04T05:43:32.652Z,15.92
2018-12-04T05:45:58.706Z,15.72
2018-12-04T05:48:24.746Z,15.61
2018-12-04T05:50:50.816Z,15.42
2018-12-04T05:53:16.774Z,15.41
2018-12-04T05:55:42.812Z,15.63
2018-12-04T05:58:08.767Z,15.64
2018-12-04T06:00:34.742Z,15.82
2018-12-04T06:03:00.738Z,15.75
2018-12-04T06:05:26.726Z,15.55
2018-12-04T06:07:52.681Z,15.43
2018-12-04T06:10:18.660Z,15.46
2018-12-04T06:12:44.663Z,15.61
2018-12-04T06:15:10.631Z,15.52
2018-12-04T06:17:36.594Z,15.62
2018-12-04T06:20:02.596Z,15.59
2018-12-04T06:22:28.589Z,15.22
2018-12-04T06:24:54.596Z,15.06
2018-12-04T06:27:20.556Z,15.13
2018-12-04T06:29:46.599Z,15.14
2018-12-04T06:32:12.603Z,15.28
2018-12-04T06:34:38.649Z,15.30
2018-12-04T06:37:04.616Z,14.66
2018-12-04T06:39:30.577Z,15.16
2018-12-04T06:41:56.689Z,14.97
2018-12-04T06:44:22.810Z,14.93
2018-12-04T06:46:48.840Z,14.97
2018-12-04T06:49:14.824Z,14.83
2018-12-04T06:51:40.803Z,15.00
2018-12-04T06:54:06.756Z,15.03
2018-12-04T06:56:32.730Z,14.93
2018-12-04T06:58:59.375Z,15.18
2018-12-04T07:01:25.377Z,15.18
2018-12-04T07:03:51.362Z,14.90
2018-12-04T07:06:17.349Z,15.15
2018-12-04T07:08:43.312Z,15.02
2018-12-04T07:11:09.310Z,14.76
2018-12-04T07:13:35.301Z,14.73
2018-12-04T07:16:01.264Z,14.87
2018-12-04T07:18:27.330Z,15.02
2018-12-04T07:20:54.213Z,14.91
2018-12-04T07:23:20.193Z,14.66
2018-12-04T07:25:46.220Z,14.67
2018-12-04T07:28:12.197Z,14.74
2018-12-04T07:30:38.181Z,14.87
2018-12-04T07:33:04.193Z,14.73
2018-12-04T07:35:30.151Z,14.75
2018-12-04T07:37:56.885Z,14.69
2018-12-04T07:40:22.846Z,14.88
2018-12-04T07:42:48.906Z,14.90
2018-12-04T07:45:14.903Z,14.79
2018-12-04T07:47:40.893Z,14.91
2018-12-04T07:50:06.871Z,14.72
2018-12-04T07:52:32.889Z,14.68
2018-12-04T07:54:58.868Z,14.77
2018-12-04T07:57:24.858Z,14.83
2018-12-04T07:59:50.838Z,14.68
2018-12-04T08:02:16.800Z,14.82
2018-12-04T08:04:42.754Z,14.88
2018-12-04T08:07:08.721Z,15.10
2018-12-04T08:09:34.702Z,15.09
2018-12-04T08:12:00.706Z,14.92
2018-12-04T08:14:26.706Z,14.92
2018-12-04T08:16:54.214Z,14.62
2018-12-04T08:19:20.285Z,14.87
2018-12-04T08:21:46.296Z,14.87
2018-12-04T08:24:12.324Z,14.77
2018-12-04T08:26:38.284Z,15.19
2018-12-04T08:29:04.281Z,14.85
2018-12-04T08:31:30.293Z,14.72
2018-12-04T08:33:56.254Z,14.79
2018-12-04T08:36:22.289Z,14.66
2018-12-04T08:38:49.587Z,14.69
2018-12-04T08:41:15.625Z,14.42
2018-12-04T08:43:41.749Z,14.35
2018-12-04T08:46:07.783Z,14.45
2018-12-04T08:48:33.868Z,14.61
2018-12-04T08:50:59.816Z,14.78
2018-12-04T08:53:25.852Z,15.07
2018-12-04T08:55:52.557Z,15.15
2018-12-04T08:58:19.500Z,15.07
2018-12-04T09:00:45.549Z,15.32
2018-12-04T09:03:12.602Z,15.39
2018-12-04T09:05:38.638Z,15.43
2018-12-04T09:08:09.270Z,15.54
2018-12-04T09:10:32.682Z,15.47
2018-12-04T09:12:58.714Z,15.44
2018-12-04T09:15:25.077Z,15.61
2018-12-04T09:17:51.089Z,15.56
2018-12-04T09:20:17.145Z,15.46
2018-12-04T09:22:43.261Z,15.26
2018-12-04T09:25:09.280Z,15.23
2018-12-04T09:27:35.287Z,15.27
2018-12-04T09:30:01.360Z,15.38
2018-12-04T09:32:27.425Z,15.29
2018-12-04T09:34:53.379Z,15.28
2018-12-04T09:37:19.415Z,15.46
2018-12-04T09:39:45.447Z,15.44
2018-12-04T09:42:11.412Z,14.88
2018-12-04T09:44:37.408Z,14.86
2018-12-04T09:47:03.455Z,14.78
2018-12-04T09:49:29.569Z,14.81
2018-12-04T09:51:55.610Z,14.86
2018-12-04T09:54:21.612Z,14.77
2018-12-04T09:56:47.592Z,14.57
2018-12-04T09:59:13.614Z,14.69
2018-12-04T10:01:39.598Z,14.62
2018-12-04T10:04:05.594Z,14.61
2018-12-04T10:06:31.604Z,14.74
2018-12-04T10:08:57.604Z,14.81
2018-12-04T10:11:23.577Z,15.03
2018-12-04T10:13:49.617Z,14.81
2018-12-04T10:16:15.582Z,14.92
2018-12-04T10:18:47.485Z,14.89
2018-12-04T10:21:09.694Z,14.92
2018-12-04T10:23:35.671Z,14.94
2018-12-04T10:41:09.586Z,15.12
2018-12-04T10:43:35.616Z,15.09
2018-12-04T10:46:01.586Z,15.08
2018-12-04T10:48:27.549Z,15.01
2018-12-04T10:50:53.542Z,15.04
2018-12-04T10:53:19.521Z,15.19
2018-12-04T10:55:45.517Z,15.19
2018-12-04T10:58:11.540Z,15.22
2018-12-04T11:00:37.490Z,15.08
2018-12-04T11:03:03.508Z,15.10
2018-12-04T11:05:29.471Z,15.05
2018-12-04T11:07:55.507Z,15.13
2018-12-04T11:10:21.453Z,15.19
2018-12-04T11:12:47.414Z,15.22
2018-12-04T11:15:13.356Z,15.16
2018-12-04T11:20:11.145Z,15.10
2018-12-04T11:22:37.125Z,15.41
2018-12-04T11:25:03.100Z,15.26
2018-12-04T11:27:29.056Z,15.24
2018-12-04T11:29:55.035Z,15.19
2018-12-04T11:32:21.060Z,15.15
2018-12-04T11:34:47.017Z,15.18
2018-12-04T11:37:13.011Z,15.28
2018-12-04T11:39:38.951Z,15.26
2018-12-04T11:42:04.926Z,14.86
2018-12-04T11:44:30.976Z,15.08
2018-12-04T11:46:56.970Z,14.96
2018-12-04T11:49:22.926Z,15.01
2018-12-04T11:51:48.891Z,14.94
2018-12-04T11:54:14.838Z,15.02
2018-12-04T11:56:40.841Z,14.79
2018-12-04T11:59:06.806Z,14.97
2018-12-04T12:01:32.776Z,14.91
2018-12-04T12:03:58.734Z,15.00
2018-12-04T12:06:24.744Z,15.04
2018-12-04T12:08:50.752Z,15.01
2018-12-04T12:11:16.745Z,14.95
2018-12-04T12:13:42.705Z,15.13
2018-12-04T12:16:08.676Z,15.08
2018-12-04T12:18:34.621Z,14.99
2018-12-04T12:21:00.590Z,15.00
2018-12-04T12:23:26.542Z,14.99
2018-12-04T12:25:52.492Z,15.12
2018-12-04T12:28:18.470Z,14.95
2018-12-04T12:30:44.464Z,15.10
2018-12-04T12:33:10.484Z,15.13
2018-12-04T12:35:36.466Z,15.28
2018-12-04T12:38:02.690Z,14.89
2018-12-04T12:40:28.690Z,15.07
2018-12-04T12:42:54.678Z,14.91
2018-12-04T12:45:20.707Z,15.26
2018-12-04T12:47:46.697Z,15.07
2018-12-04T12:50:12.688Z,15.08
2018-12-04T12:52:38.696Z,14.96
2018-12-04T12:55:04.698Z,15.05
2018-12-04T12:57:30.732Z,14.78
2018-12-04T12:59:56.710Z,14.90
2018-12-04T13:02:22.681Z,14.61
2018-12-04T13:04:48.664Z,14.55
2018-12-04T13:07:14.680Z,14.46
2018-12-04T13:09:41.650Z,14.53
2018-12-04T13:12:07.676Z,14.32
2018-12-04T13:14:33.657Z,14.34
2018-12-04T13:16:59.651Z,14.38
2018-12-04T13:19:25.639Z,14.28
2018-12-04T13:21:51.598Z,14.08
2018-12-04T13:24:17.567Z,14.23
2018-12-04T13:26:43.562Z,14.22
2018-12-04T13:29:10.252Z,14.23
2018-12-04T13:31:36.224Z,14.33
2018-12-04T13:34:02.218Z,14.24
2018-12-04T13:36:28.183Z,14.23
2018-12-04T13:38:54.230Z,14.52
2018-12-04T13:41:20.222Z,14.66
2018-12-04T13:43:46.181Z,14.44
2018-12-04T13:46:12.167Z,14.28
2018-12-04T13:48:38.145Z,14.35
2018-12-04T13:51:04.156Z,14.27
2018-12-04T13:53:30.182Z,14.53
2018-12-04T13:55:56.171Z,14.63
2018-12-04T13:58:22.208Z,14.49
2018-12-04T14:00:48.190Z,14.28
2018-12-04T14:03:14.205Z,14.29
2018-12-04T14:05:40.339Z,14.49
2018-12-04T14:08:06.567Z,14.61
2018-12-04T14:10:32.664Z,14.35
2018-12-04T14:12:58.699Z,14.48
2018-12-04T14:15:24.691Z,14.67
2018-12-04T14:17:50.707Z,14.28
2018-12-04T14:20:16.807Z,14.33
2018-12-04T14:22:42.906Z,14.01
2018-12-04T14:25:08.986Z,13.96
2018-12-04T14:27:35.093Z,14.27
2018-12-04T14:32:34.318Z,14.14
2018-12-04T14:35:00.439Z,14.41
2018-12-04T14:37:26.488Z,14.33
2018-12-04T14:39:52.539Z,14.15
2018-12-04T14:42:20.861Z,14.09
2018-12-04T14:44:47.161Z,14.00
2018-12-04T14:47:13.213Z,13.87
2018-12-04T14:49:39.342Z,13.81
2018-12-04T14:52:05.478Z,14.02
2018-12-04T14:54:31.495Z,13.97
2018-12-04T14:56:57.475Z,13.67
2018-12-04T14:59:23.453Z,13.65
2018-12-04T15:01:49.438Z,13.60
2018-12-04T15:04:15.443Z,13.47
2018-12-04T15:06:44.563Z,13.54
2018-12-04T15:09:10.743Z,13.67
2018-12-04T15:11:36.909Z,13.57
2018-12-04T15:14:03.034Z,13.59
2018-12-04T15:16:29.131Z,13.62
2018-12-04T15:18:55.304Z,13.38
2018-12-04T15:21:22.284Z,13.44
2018-12-04T15:23:48.309Z,13.59
2018-12-04T15:26:14.311Z,13.67
2018-12-04T15:28:40.327Z,13.40
2018-12-04T15:31:07.353Z,13.44
2018-12-04T15:36:07.197Z,13.76
2018-12-04T15:38:33.237Z,13.58
2018-12-04T15:40:59.354Z,13.45
2018-12-04T15:43:25.401Z,13.56
2018-12-04T15:45:51.565Z,13.74
2018-12-04T15:48:18.649Z,13.38
2018-12-04T15:50:44.650Z,13.27
2018-12-04T15:53:10.738Z,13.36
2018-12-04T15:55:36.813Z,13.30
2018-12-04T15:58:02.816Z,13.07
2018-12-04T16:00:29.911Z,13.65
2018-12-04T16:02:55.948Z,13.32
2018-12-04T16:05:21.997Z,13.65
2018-12-04T16:07:48.034Z,13.25
2018-12-04T16:10:14.034Z,13.44
2018-12-04T16:12:40.202Z,13.46
2018-12-04T16:15:06.266Z,13.26
2018-12-04T16:17:32.237Z,13.30
2018-12-04T16:19:58.240Z,13.31
2018-12-04T16:22:25.524Z,13.39
2018-12-04T16:24:51.665Z,13.50
2018-12-04T16:27:17.776Z,13.40
2018-12-04T16:29:43.905Z,13.14
2018-12-04T16:34:51.980Z,13.35
2018-12-04T16:37:18.043Z,13.50
2018-12-04T16:39:44.266Z,13.41
2018-12-04T16:42:10.982Z,13.15
2018-12-04T16:44:37.039Z,13.22
2018-12-04T16:47:03.184Z,13.31
2018-12-04T16:49:33.853Z,13.10
2018-12-04T16:52:00.016Z,13.32
2018-12-04T16:54:26.103Z,13.42
2018-12-04T16:56:53.147Z,13.28
2018-12-04T16:59:20.579Z,13.31
2018-12-04T17:01:46.685Z,13.33
2018-12-04T17:04:13.786Z,12.96
2018-12-04T17:06:40.006Z,12.98
2018-12-04T17:11:37.934Z,12.91
2018-12-04T17:14:04.700Z,12.75
2018-12-04T17:16:30.831Z,12.89
2018-12-04T17:18:56.969Z,12.94
2018-12-04T17:21:23.114Z,12.86
2018-12-04T17:23:51.522Z,13.10
2018-12-04T17:26:22.753Z,12.89
2018-12-04T17:28:50.336Z,12.75
2018-12-04T17:31:19.526Z,13.09
2018-12-04T17:33:47.279Z,13.13
2018-12-04T17:36:20.724Z,13.14
2018-12-04T17:38:47.907Z,12.97
2018-12-04T17:41:14.100Z,12.79
2018-12-04T17:43:40.230Z,12.81
2018-12-04T17:46:06.294Z,13.05
2018-12-04T17:48:32.422Z,13.15
2018-12-04T17:50:58.617Z,13.07
2018-12-04T17:53:24.862Z,13.23
2018-12-04T17:55:52.071Z,12.99
2018-12-04T17:58:19.399Z,12.81
2018-12-04T18:00:45.495Z,12.65
2018-12-04T18:03:11.705Z,12.88
2018-12-04T18:05:40.322Z,12.71
2018-12-04T18:08:06.455Z,12.55
2018-12-04T18:10:34.040Z,12.21
2018-12-04T18:13:00.151Z,12.34
2018-12-04T18:15:28.322Z,12.30
2018-12-04T18:17:59.222Z,12.29
2018-12-04T18:20:25.383Z,12.12
2018-12-04T18:22:52.125Z,12.04
2018-12-04T18:25:18.936Z,12.11
2018-12-04T18:27:50.358Z,12.10
2018-12-04T18:30:20.662Z,11.97
2018-12-04T18:32:46.703Z,11.94
2018-12-04T18:35:12.744Z,11.92
2018-12-04T18:37:39.220Z,11.84
2018-12-04T18:40:05.311Z,11.91
2018-12-04T18:42:31.390Z,11.87
2018-12-04T18:44:58.310Z,11.78
2018-12-04T18:47:24.509Z,11.69
2018-12-04T18:49:52.218Z,11.66
2018-12-04T18:52:19.344Z,11.61
2018-12-04T18:54:45.842Z,11.77
2018-12-04T18:57:12.132Z,11.76
2018-12-04T18:59:38.906Z,11.84
2018-12-04T19:02:07.966Z,11.84
2018-12-04T19:04:35.255Z,11.95
2018-12-04T19:07:01.401Z,11.99
2018-12-04T19:09:27.403Z,11.97
2018-12-04T19:11:53.393Z,12.12
2018-12-04T19:14:19.883Z,12.12
2018-12-04T19:16:46.503Z,12.15
2018-12-04T19:19:13.418Z,12.11
2018-12-04T19:21:39.447Z,12.19
2018-12-04T19:24:05.594Z,12.08
2018-12-04T19:26:32.548Z,11.92
2018-12-04T19:28:58.779Z,12.12
2018-12-04T19:31:24.874Z,11.98
2018-12-04T19:33:50.930Z,11.97
2018-12-04T19:36:17.200Z,11.94
2018-12-04T19:38:45.388Z,12.30
2018-12-04T19:41:14.102Z,12.35
2018-12-04T19:43:40.494Z,11.98
2018-12-04T19:46:07.469Z,11.97
2018-12-04T19:48:33.594Z,12.25
2018-12-04T19:50:59.773Z,12.24
2018-12-04T19:53:26.833Z,12.32
2018-12-04T19:55:52.949Z,12.20
2018-12-04T19:58:19.170Z,12.20
2018-12-04T20:03:20.396Z,11.93
2018-12-04T20:05:46.582Z,12.04
2018-12-04T20:08:12.778Z,11.95
2018-12-04T20:10:38.992Z,11.96
2018-12-04T20:13:05.194Z,12.07
2018-12-04T20:15:31.429Z,11.94
2018-12-04T20:17:57.545Z,11.76
2018-12-04T20:20:23.704Z,11.74
2018-12-04T20:22:49.796Z,11.60
2018-12-04T20:40:31.546Z,11.46
2018-12-04T20:42:57.452Z,11.33
2018-12-04T20:45:23.699Z,11.19
2018-12-04T20:47:50.150Z,11.27
2018-12-04T20:50:16.288Z,11.44
2018-12-04T20:52:42.494Z,11.63
2018-12-04T20:55:09.210Z,11.55
2018-12-04T20:57:35.625Z,11.54
2018-12-04T21:00:01.804Z,11.41
2018-12-04T21:02:28.066Z,11.39
2018-12-04T21:04:54.310Z,11.51
2018-12-04T21:09:55.291Z,11.48
2018-12-04T21:12:21.445Z,11.31
2018-12-04T21:14:47.637Z,11.38
2018-12-04T21:17:13.815Z,11.41
2018-12-04T21:19:39.879Z,11.41
2018-12-04T21:22:06.013Z,11.30
2018-12-04T21:24:32.136Z,11.32
2018-12-04T21:26:58.251Z,11.15
2018-12-04T21:29:24.356Z,11.22
2018-12-04T21:31:50.589Z,11.03
2018-12-04T21:34:16.717Z,11.09
2018-12-04T21:36:48.577Z,11.11
2018-12-04T21:39:14.744Z,11.06
2018-12-04T21:41:40.855Z,11.04
2018-12-04T21:44:08.031Z,11.13
2018-12-04T21:46:34.106Z,11.12
2018-12-04T21:49:00.183Z,11.18
2018-12-04T21:51:27.966Z,11.18
2018-12-04T21:53:54.229Z,11.11
2018-12-04T21:56:20.258Z,11.00
2018-12-04T21:58:46.343Z,11.09
2018-12-04T22:01:12.404Z,11.17
2018-12-04T22:03:38.577Z,11.16
2018-12-04T22:06:04.741Z,11.21
2018-12-04T22:08:30.840Z,11.05
2018-12-04T22:10:56.926Z,11.09
2018-12-04T22:13:23.033Z,11.07
2018-12-04T22:15:49.784Z,11.18
2018-12-04T22:18:15.908Z,11.33
2018-12-04T22:20:41.975Z,11.20
2018-12-04T22:23:08.011Z,11.16
2018-12-04T22:25:34.042Z,11.06
2018-12-04T22:28:00.094Z,11.16
2018-12-04T22:30:26.141Z,11.17
2018-12-04T22:32:52.173Z,10.98
2018-12-04T22:35:18.208Z,10.96
2018-12-04T22:37:44.268Z,11.03
2018-12-04T22:40:10.391Z,11.03
2018-12-04T22:42:36.479Z,11.14
2018-12-04T22:45:02.599Z,11.14
2018-12-04T22:47:28.683Z,11.18
2018-12-04T22:49:55.006Z,11.22
2018-12-04T22:52:21.075Z,11.15
2018-12-04T22:54:47.141Z,11.10
2018-12-04T22:57:13.208Z,11.07
2018-12-04T22:59:39.261Z,11.09
2018-12-04T23:02:05.367Z,11.11
2018-12-04T23:04:31.437Z,11.01
2018-12-04T23:06:57.502Z,11.12
2018-12-04T23:09:23.628Z,11.06
2018-12-04T23:11:49.657Z,10.99
2018-12-04T23:14:15.705Z,10.92
2018-12-04T23:16:41.769Z,11.07
2018-12-04T23:19:07.802Z,11.09
2018-12-04T23:21:33.834Z,11.25
2018-12-04T23:23:59.881Z,11.01
2018-12-04T23:26:25.962Z,11.00
2018-12-04T23:28:51.993Z,10.97
2018-12-04T23:31:18.022Z,11.02
2018-12-04T23:33:44.079Z,11.07
2018-12-04T23:36:10.129Z,11.05
2018-12-04T23:38:36.156Z,11.01
2018-12-04T23:41:02.169Z,10.89
2018-12-04T23:43:28.208Z,10.95
2018-12-04T23:45:54.256Z,10.94
2018-12-04T23:48:20.335Z,10.80
2018-12-04T23:50:46.382Z,10.97
2018-12-04T23:53:12.448Z,10.97
2018-12-04T23:55:38.519Z,10.98
2018-12-04T23:58:04.585Z,10.97
